St George Municipal Airport
KSGU : now visible

Airfield :











YOU CAN JOIN US ON...

 
LOGIN :

Register | Disclaimer

   EN    FR    IT 

 









Legend :    VFR   Marginal VFR   IFR   Intensive IFR   Very Intensive IFR
Visi :
Ceiling :
>= 8 km
>= 3000ft
5 to 8 km
1000 to 3000 ft
1500m to 5 km
500 to 1000 ft
800 to 1500m
200 to 500 ft
< 800m
< 200 ft
Symbols :   Thunderstorms  Fog  Heavy snow  Heavy precipitations  Wind > 20 kt






- Airport Elevation : 2941 ft


KSGU - St George Municipal

CURRENT METAR :
  • 091956Z AUTO 00000KT 10SM CLR 10/04 A3009 RMK AO2 SLP186 T01000044 PNO $

EXPIRED METARs :
  • 091856Z AUTO 00000KT 10SM CLR 09/05 A3011 RMK AO2 SLP194 T00940050 PNO $
  • 091756Z AUTO 11004KT 10SM CLR 08/06 A3011 RMK AO2 SLP197 6//// T00780056 10078 20028 51012 PNO $

TAF KSGU
Valid from the 09 at 18:00 until the 10 at 18:00 UTC


091720Z 0918/1018 06007KT P6SM FEW120



MET'MAP, your aeronautical weather chart ! - Copyright ORBIFLY December 2007 - Disclaimer

ORBIFLY MET'MAP TEAM :

Programming & Development : Alexandra Zaïnal
Concept & original design : Baudouin d'Aumeries
Assistance for programming : Marc-Olivier Méhu
Technical & hardware support : Manuel Goepfert

Contact : metmap@orbifly.com




SOURCES & CREDITS :

   NOAA       Earth
Advisory